Time;durP1;ratioP1;P1;durP2;ratioP2;P2;SDS_P1;SDS_P2;PMS_P1;PMS_P2;Temp;Humidity;BMP_temperature;BMP_pressure;BME280_temperature;BME280_humidity;BME280_pressure;Samples;Min_cycle;Max_cycle;Signal;HPM_P1;HPM_P2
2021/12/23 00:00:25;;;;;;;9.40;6.93;;;8.80;1.00;;;;;;5122783;27;20204;-77
2021/12/23 00:02:52;;;;;;;7.77;6.63;;;8.70;1.00;;;;;;5131557;27;20260;-77
2021/12/23 00:05:19;;;;;;;8.40;6.77;;;8.90;1.00;;;;;;5131283;28;20220;-77
2021/12/23 00:07:49;;;;;;;9.47;6.13;;;8.80;1.00;;;;;;5131312;28;20654;-77
2021/12/23 00:10:16;;;;;;;15.93;6.90;;;8.80;1.00;;;;;;5113807;28;20262;-77
2021/12/23 00:12:44;;;;;;;9.50;7.87;;;8.60;1.00;;;;;;5111047;28;20200;-77
2021/12/23 00:15:23;;;;;;;11.87;7.20;;;8.60;1.00;;;;;;5111092;28;20197;-77
2021/12/23 00:18:00;;;;;;;6.60;5.40;;;8.90;1.00;;;;;;5110418;28;20240;-77
2021/12/23 00:23:28;;;;;;;8.57;6.77;;;8.90;1.00;;;;;;5111063;28;20586;-78
2021/12/23 00:26:00;;;;;;;7.53;6.30;;;8.70;1.00;;;;;;5110808;28;20204;-77
2021/12/23 00:28:28;;;;;;;12.47;7.37;;;8.70;1.00;;;;;;5111077;28;20588;-77
2021/12/23 00:30:55;;;;;;;9.40;5.97;;;8.80;1.00;;;;;;5128465;28;20668;-78
2021/12/23 00:33:23;;;;;;;7.47;6.27;;;8.60;1.00;;;;;;5131218;28;20257;-78
2021/12/23 00:35:52;;;;;;;8.73;5.67;;;8.90;1.00;;;;;;5131089;28;20243;-79
2021/12/23 00:38:26;;;;;;;11.00;6.80;;;8.80;1.00;;;;;;5124340;28;20688;-79
2021/12/23 00:40:53;;;;;;;10.43;7.20;;;8.80;1.00;;;;;;5110546;28;20279;-78
2021/12/23 00:43:20;;;;;;;7.57;5.93;;;8.70;1.00;;;;;;5111063;28;20203;-77
2021/12/23 00:45:48;;;;;;;8.90;7.10;;;8.80;1.00;;;;;;5110274;28;20208;-78
2021/12/23 00:48:15;;;;;;;10.03;7.07;;;8.90;1.00;;;;;;5110550;28;20232;-77
2021/12/23 00:50:42;;;;;;;10.70;6.37;;;9.10;1.00;;;;;;5110356;28;20209;-77
2021/12/23 00:53:12;;;;;;;11.17;7.27;;;9.00;1.00;;;;;;5121074;27;20196;-78
2021/12/23 00:55:40;;;;;;;12.87;7.97;;;8.80;1.00;;;;;;5135192;27;20287;-79
2021/12/23 00:58:07;;;;;;;8.70;6.63;;;8.50;1.00;;;;;;5135638;27;20253;-78
2021/12/23 01:00:34;;;;;;;8.10;6.30;;;8.70;1.00;;;;;;5135630;27;20200;-78
2021/12/23 01:03:03;;;;;;;12.80;6.20;;;8.80;1.00;;;;;;5134461;27;20444;-77
2021/12/23 01:05:30;;;;;;;10.63;6.83;;;8.90;1.00;;;;;;5134535;27;20212;-81
2021/12/23 01:07:58;;;;;;;12.13;6.90;;;8.80;1.00;;;;;;5134795;27;20231;-78
2021/12/23 01:10:26;;;;;;;11.47;7.47;;;8.60;1.00;;;;;;5112833;27;20250;-81
2021/12/23 01:12:59;;;;;;;12.73;7.30;;;8.30;1.00;;;;;;5100373;27;20211;-79
2021/12/23 01:15:58;;;;;;;9.60;7.07;;;8.20;1.00;;;;;;5103812;28;20205;-79
2021/12/23 01:18:25;;;;;;;9.20;6.93;;;8.40;1.00;;;;;;5100376;28;20231;-77
2021/12/23 01:20:53;;;;;;;9.37;7.23;;;8.90;1.00;;;;;;5102156;27;20254;-80
2021/12/23 01:23:22;;;;;;;12.37;8.80;;;8.70;1.00;;;;;;5099677;28;20209;-80
2021/12/23 01:25:50;;;;;;;9.37;6.20;;;8.80;1.00;;;;;;5111136;28;20648;-80
2021/12/23 01:28:20;;;;;;;8.17;7.07;;;8.80;1.00;;;;;;5110501;28;20237;-75
2021/12/23 01:30:47;;;;;;;8.87;6.80;;;8.80;1.00;;;;;;5099798;28;20202;-76
2021/12/23 01:33:15;;;;;;;11.60;7.00;;;8.80;1.00;;;;;;5104317;28;20204;-75
2021/12/23 01:35:44;;;;;;;10.90;7.60;;;8.70;1.00;;;;;;5108236;28;20201;-81
2021/12/23 01:38:12;;;;;;;11.90;7.70;;;8.80;1.00;;;;;;5110731;28;20232;-81
2021/12/23 01:40:39;;;;;;;11.03;7.20;;;8.80;1.00;;;;;;5113820;28;20201;-79
2021/12/23 01:43:06;;;;;;;9.83;6.50;;;8.80;1.00;;;;;;5113785;28;20559;-83
2021/12/23 01:45:36;;;;;;;8.77;6.50;;;8.90;1.00;;;;;;5115979;27;20253;-83
2021/12/23 01:48:04;;;;;;;11.77;8.43;;;9.10;1.00;;;;;;5113952;28;20271;-83
2021/12/23 01:50:34;;;;;;;9.47;6.67;;;9.10;1.00;;;;;;5113502;28;20201;-81
2021/12/23 01:53:01;;;;;;;9.13;6.37;;;9.30;1.00;;;;;;5113921;28;20197;-83
2021/12/23 01:55:30;;;;;;;10.93;7.23;;;9.40;1.00;;;;;;5114073;28;20629;-84
2021/12/23 01:57:58;;;;;;;8.40;6.37;;;9.40;1.00;;;;;;5114199;28;20269;-86
2021/12/23 02:00:29;;;;;;;10.30;7.70;;;9.30;1.00;;;;;;5113651;28;20204;-84
2021/12/23 02:02:58;;;;;;;11.37;6.77;;;9.10;1.00;;;;;;5113650;28;20248;-83
2021/12/23 02:05:25;;;;;;;11.80;7.53;;;9.10;1.00;;;;;;5112656;28;20220;-78
2021/12/23 02:07:52;;;;;;;9.60;7.40;;;9.10;1.00;;;;;;5112659;27;20224;-79
2021/12/23 02:10:19;;;;;;;8.60;6.93;;;9.20;1.00;;;;;;5112980;27;20626;-79
2021/12/23 02:12:48;;;;;;;9.50;7.23;;;8.90;1.00;;;;;;5104241;28;20246;-80
2021/12/23 02:15:17;;;;;;;10.37;6.57;;;8.80;1.00;;;;;;5112711;28;20257;-81
2021/12/23 02:17:45;;;;;;;11.30;7.00;;;8.70;1.00;;;;;;5112089;28;20204;-80
2021/12/23 02:20:15;;;;;;;10.57;7.63;;;9.00;1.00;;;;;;5112598;28;20672;-81
2021/12/23 02:22:43;;;;;;;10.80;6.90;;;8.90;1.00;;;;;;5112090;28;20217;-78
2021/12/23 02:25:12;;;;;;;12.23;6.80;;;8.60;1.00;;;;;;5112983;28;20246;-83
2021/12/23 02:27:40;;;;;;;6.97;6.27;;;8.50;1.00;;;;;;5112322;28;20648;-78
2021/12/23 02:30:11;;;;;;;15.30;6.73;;;8.60;1.00;;;;;;5112423;28;20291;-80
2021/12/23 02:32:38;;;;;;;9.60;5.67;;;8.80;1.00;;;;;;5112399;28;20261;-79
2021/12/23 02:35:07;;;;;;;7.77;6.43;;;8.70;1.00;;;;;;5113486;27;20201;-80
2021/12/23 02:37:36;;;;;;;9.20;6.00;;;8.90;1.00;;;;;;5112508;28;20219;-81
2021/12/23 02:40:03;;;;;;;8.60;6.13;;;8.90;1.00;;;;;;5111839;28;20725;-77
2021/12/23 02:42:30;;;;;;;8.70;6.50;;;8.70;1.00;;;;;;5111593;28;20724;-78
2021/12/23 02:44:58;;;;;;;6.63;5.93;;;8.70;1.00;;;;;;5108899;27;20250;-80
2021/12/23 02:47:25;;;;;;;11.60;6.63;;;9.00;1.00;;;;;;5112228;28;20224;-79
2021/12/23 02:49:52;;;;;;;8.77;5.83;;;9.10;1.00;;;;;;5103926;28;20213;-80
2021/12/23 02:52:19;;;;;;;9.57;5.50;;;9.00;1.00;;;;;;5111579;28;20197;-79
2021/12/23 02:54:56;;;;;;;8.20;5.63;;;8.90;1.00;;;;;;5111159;28;20258;-80
2021/12/23 02:57:23;;;;;;;5.83;4.63;;;8.70;1.00;;;;;;5111592;28;20698;-79
2021/12/23 02:59:51;;;;;;;10.23;6.17;;;9.00;1.00;;;;;;5111045;28;20371;-80
2021/12/23 03:02:18;;;;;;;8.17;5.73;;;9.10;1.00;;;;;;5111782;28;20250;-80
2021/12/23 03:04:45;;;;;;;7.57;5.90;;;9.20;1.00;;;;;;5110565;27;20209;-79
2021/12/23 03:07:12;;;;;;;20.80;6.63;;;9.30;1.00;;;;;;5120080;27;20284;-80
2021/12/23 03:09:39;;;;;;;7.90;4.90;;;9.40;1.00;;;;;;5111069;28;20250;-80
2021/12/23 03:12:08;;;;;;;15.77;7.47;;;9.20;1.00;;;;;;5103790;28;20260;-80
2021/12/23 03:14:35;;;;;;;8.17;4.80;;;9.10;1.00;;;;;;5115211;27;20197;-77
2021/12/23 03:17:03;;;;;;;7.77;4.70;;;9.10;1.00;;;;;;5110687;28;20205;-76
2021/12/23 03:19:29;;;;;;;5.70;4.70;;;9.30;1.00;;;;;;5116824;27;20740;-76
2021/12/23 03:21:57;;;;;;;15.27;7.60;;;9.30;1.00;;;;;;5111564;27;20656;-75
2021/12/23 03:24:24;;;;;;;5.80;5.30;;;9.30;1.00;;;;;;5111166;28;20205;-75
2021/12/23 03:26:51;;;;;;;6.47;5.40;;;9.10;1.00;;;;;;5110324;28;20250;-75
2021/12/23 03:29:19;;;;;;;11.07;5.43;;;9.20;1.00;;;;;;5113555;27;20267;-75
2021/12/23 03:31:46;;;;;;;6.67;5.47;;;9.00;1.00;;;;;;5110388;28;20265;-76
2021/12/23 03:34:13;;;;;;;11.93;5.50;;;9.00;1.00;;;;;;5109132;27;20205;-78
2021/12/23 03:36:40;;;;;;;9.30;6.23;;;9.10;1.00;;;;;;5099598;28;20209;-77
2021/12/23 03:39:07;;;;;;;16.60;5.53;;;9.20;1.00;;;;;;5110819;28;20250;-76
2021/12/23 03:41:34;;;;;;;10.00;6.47;;;9.20;1.00;;;;;;5117848;27;20201;-77
2021/12/23 03:44:01;;;;;;;12.47;6.23;;;9.40;1.00;;;;;;5109839;28;20744;-77
2021/12/23 03:46:30;;;;;;;7.20;5.50;;;9.10;1.00;;;;;;5110774;28;20197;-77
2021/12/23 03:48:57;;;;;;;9.07;5.47;;;9.10;1.00;;;;;;5109727;28;20415;-76
2021/12/23 03:51:24;;;;;;;9.00;5.13;;;9.00;1.00;;;;;;5109851;28;20664;-77
2021/12/23 03:53:51;;;;;;;10.87;7.33;;;9.00;1.00;;;;;;5110064;28;20197;-80
2021/12/23 03:56:18;;;;;;;9.63;6.63;;;9.00;1.00;;;;;;5110600;28;20196;-77
2021/12/23 03:58:45;;;;;;;16.47;6.77;;;9.20;1.00;;;;;;5110400;28;20680;-80
2021/12/23 04:01:13;;;;;;;13.87;6.10;;;9.10;1.00;;;;;;5111328;28;20197;-87
2021/12/23 04:03:41;;;;;;;8.90;6.53;;;9.00;1.00;;;;;;5111659;28;20281;-82
2021/12/23 04:06:09;;;;;;;8.73;6.30;;;9.00;1.00;;;;;;5110927;28;20265;-82
2021/12/23 04:08:36;;;;;;;9.03;5.37;;;9.10;1.00;;;;;;5115034;28;20282;-85
2021/12/23 04:11:03;;;;;;;11.23;5.93;;;8.90;1.00;;;;;;5110126;28;20262;-82
2021/12/23 04:13:30;;;;;;;11.20;6.37;;;8.90;1.00;;;;;;5111087;28;20684;-83
2021/12/23 04:15:57;;;;;;;13.37;7.20;;;8.60;1.00;;;;;;5110669;28;20201;-82
2021/12/23 04:18:24;;;;;;;11.93;7.00;;;8.60;1.00;;;;;;5110905;28;20197;-83
2021/12/23 04:20:55;;;;;;;9.77;6.87;;;8.60;1.00;;;;;;5110821;28;20193;-82
2021/12/23 04:23:23;;;;;;;11.73;6.57;;;8.70;1.00;;;;;;5110850;28;20205;-83
2021/12/23 04:25:50;;;;;;;11.73;6.53;;;8.80;1.00;;;;;;5110321;28;20250;-82
2021/12/23 04:28:17;;;;;;;8.27;6.43;;;9.10;1.00;;;;;;5112786;28;20217;-80
2021/12/23 04:30:44;;;;;;;10.87;6.03;;;9.10;1.00;;;;;;5114429;28;20254;-82
2021/12/23 04:33:12;;;;;;;7.93;5.80;;;9.40;1.00;;;;;;5114604;28;20283;-79
2021/12/23 04:35:39;;;;;;;8.63;7.37;;;9.00;1.00;;;;;;5114729;28;20258;-79
2021/12/23 04:38:08;;;;;;;10.97;7.07;;;8.80;1.00;;;;;;5096177;28;20258;-77
2021/12/23 04:40:37;;;;;;;8.03;5.83;;;8.70;1.00;;;;;;5114315;28;20201;-78
2021/12/23 04:43:05;;;;;;;9.23;6.30;;;8.70;1.00;;;;;;5113623;28;20201;-76
2021/12/23 04:45:33;;;;;;;10.03;5.57;;;8.90;1.00;;;;;;5114270;27;20201;-75
2021/12/23 04:48:00;;;;;;;7.60;5.60;;;8.90;1.00;;;;;;5113646;28;20224;-75
2021/12/23 04:50:27;;;;;;;8.20;6.63;;;9.00;1.00;;;;;;5115923;27;20201;-79
2021/12/23 04:52:54;;;;;;;7.33;5.33;;;9.10;1.00;;;;;;5113079;27;20737;-78
2021/12/23 04:55:23;;;;;;;12.40;5.60;;;9.10;1.00;;;;;;5114372;28;20273;-76
2021/12/23 04:57:50;;;;;;;9.77;7.00;;;9.00;1.00;;;;;;5114307;28;20615;-76
2021/12/23 05:00:20;;;;;;;7.87;4.53;;;9.10;1.00;;;;;;5125960;27;20205;-78
2021/12/23 05:02:47;;;;;;;7.37;5.83;;;9.50;1.00;;;;;;5134778;27;20698;-76
2021/12/23 05:05:15;;;;;;;6.83;5.50;;;9.50;1.00;;;;;;5119436;27;20210;-78
2021/12/23 05:07:42;;;;;;;9.00;5.67;;;9.50;1.00;;;;;;5101871;28;20205;-77
2021/12/23 05:10:12;;;;;;;6.37;5.10;;;9.40;1.00;;;;;;5098433;28;20240;-76
2021/12/23 05:12:44;;;;;;;8.60;5.83;;;9.50;1.00;;;;;;5095875;27;20202;-77
2021/12/23 05:15:13;;;;;;;6.33;5.00;;;9.40;1.00;;;;;;5133858;27;20200;-77
2021/12/23 05:17:40;;;;;;;9.80;4.77;;;9.40;1.00;;;;;;5134778;27;20272;-78
2021/12/23 05:20:10;;;;;;;6.27;4.63;;;9.50;1.00;;;;;;5122573;27;20285;-76
2021/12/23 05:22:37;;;;;;;11.13;6.07;;;9.60;1.00;;;;;;5127059;27;20571;-75
2021/12/23 05:25:05;;;;;;;6.97;4.13;;;9.50;1.00;;;;;;5134681;27;20264;-77
2021/12/23 05:27:32;;;;;;;6.03;4.37;;;9.70;1.00;;;;;;5134600;27;20588;-76
2021/12/23 05:30:02;;;;;;;7.30;4.27;;;9.60;1.00;;;;;;5134137;27;20239;-76
2021/12/23 05:32:29;;;;;;;7.23;4.27;;;9.70;1.00;;;;;;5134374;27;20742;-81
2021/12/23 05:34:56;;;;;;;9.30;3.70;;;9.80;1.00;;;;;;5108526;27;20284;-77
2021/12/23 05:37:23;;;;;;;7.70;4.87;;;9.90;1.00;;;;;;5107937;28;20246;-79
2021/12/23 05:39:50;;;;;;;6.57;4.67;;;9.80;1.00;;;;;;5105065;28;20254;-80
2021/12/23 05:42:17;;;;;;;4.67;3.50;;;9.90;1.00;;;;;;5112456;27;20253;-74
2021/12/23 05:44:44;;;;;;;4.13;2.93;;;9.80;1.00;;;;;;5112842;28;20717;-78
2021/12/23 05:47:13;;;;;;;3.80;3.43;;;9.90;1.00;;;;;;5113370;28;20209;-77
2021/12/23 05:49:40;;;;;;;7.00;3.30;;;10.00;1.00;;;;;;5109383;27;20228;-77
2021/12/23 05:52:07;;;;;;;6.97;3.43;;;10.10;1.00;;;;;;5103081;28;20692;-77
2021/12/23 05:54:34;;;;;;;5.00;3.37;;;10.10;1.00;;;;;;5106157;28;20212;-78
2021/12/23 05:57:02;;;;;;;5.93;3.13;;;10.10;1.00;;;;;;5110737;27;20574;-78
2021/12/23 05:59:30;;;;;;;4.60;3.17;;;10.10;1.00;;;;;;5112812;27;20695;-77
2021/12/23 06:01:57;;;;;;;4.57;3.13;;;10.10;1.00;;;;;;5112321;28;20204;-78
2021/12/23 06:04:26;;;;;;;5.73;2.90;;;10.20;1.00;;;;;;5113010;27;20204;-78
2021/12/23 06:06:53;;;;;;;5.00;4.10;;;10.20;1.00;;;;;;5112426;27;20225;-78
2021/12/23 06:09:20;;;;;;;2.77;2.43;;;10.20;1.00;;;;;;5108750;28;20742;-80
2021/12/23 06:11:47;;;;;;;4.03;2.93;;;10.20;1.00;;;;;;5113205;28;20281;-80
2021/12/23 06:14:16;;;;;;;5.23;2.87;;;10.30;1.00;;;;;;5112802;28;20204;-80
2021/12/23 06:16:43;;;;;;;6.13;3.23;;;10.40;1.00;;;;;;5113062;28;20208;-75
2021/12/23 06:19:10;;;;;;;3.37;2.50;;;10.40;1.00;;;;;;5112009;27;20749;-74
2021/12/23 06:21:39;;;;;;;3.87;2.83;;;10.40;1.00;;;;;;5112991;28;20261;-75
2021/12/23 06:24:06;;;;;;;2.70;2.50;;;10.40;1.00;;;;;;5111674;28;20212;-76
2021/12/23 06:26:34;;;;;;;2.50;2.07;;;10.40;1.00;;;;;;5112636;28;20664;-73
2021/12/23 06:29:01;;;;;;;3.77;3.07;;;10.50;1.00;;;;;;5102231;28;20229;-72
2021/12/23 06:31:28;;;;;;;3.20;2.00;;;10.50;1.00;;;;;;5108979;28;20238;-73
2021/12/23 06:33:55;;;;;;;3.67;2.83;;;10.50;1.00;;;;;;5112510;28;20204;-73
2021/12/23 06:36:22;;;;;;;4.87;2.60;;;10.50;1.00;;;;;;5112217;27;20621;-74
2021/12/23 06:38:51;;;;;;;3.13;2.53;;;10.50;1.00;;;;;;5112329;28;20209;-73
2021/12/23 06:41:18;;;;;;;4.57;3.47;;;10.50;1.00;;;;;;5111255;28;20679;-72
2021/12/23 06:43:46;;;;;;;2.80;2.60;;;10.50;1.00;;;;;;5112146;28;20204;-75
2021/12/23 06:46:14;;;;;;;4.10;2.30;;;10.50;1.00;;;;;;5109358;27;20262;-76
2021/12/23 06:48:41;;;;;;;4.83;3.23;;;10.50;1.00;;;;;;5111946;28;20756;-79
2021/12/23 06:51:08;;;;;;;4.80;2.80;;;10.50;1.00;;;;;;5111515;28;20204;-72
2021/12/23 06:53:35;;;;;;;4.33;2.60;;;10.50;1.00;;;;;;5106964;27;20204;-72
2021/12/23 06:56:04;;;;;;;3.30;2.67;;;10.50;1.00;;;;;;5104754;28;20205;-73
2021/12/23 06:58:33;;;;;;;4.07;2.93;;;10.50;1.00;;;;;;5094721;28;20201;-78
2021/12/23 07:01:00;;;;;;;5.10;3.10;;;10.50;1.00;;;;;;5110659;28;20212;-77
2021/12/23 07:03:39;;;;;;;4.20;3.10;;;10.50;1.00;;;;;;5111624;28;20205;-75
2021/12/23 07:06:07;;;;;;;3.83;2.73;;;10.50;1.00;;;;;;5110384;28;20576;-74
2021/12/23 07:08:37;;;;;;;8.93;3.27;;;10.60;1.00;;;;;;5117107;27;20196;-74
2021/12/23 07:11:06;;;;;;;4.37;3.97;;;10.50;1.00;;;;;;5114203;27;20240;-76
2021/12/23 07:13:34;;;;;;;4.37;3.20;;;10.60;1.00;;;;;;5111539;28;20287;-79
2021/12/23 07:16:02;;;;;;;3.57;3.07;;;10.60;1.00;;;;;;5109670;27;21084;-79
2021/12/23 07:18:29;;;;;;;3.70;2.90;;;10.50;1.00;;;;;;5111642;28;20672;-75
2021/12/23 07:21:03;;;;;;;3.70;3.40;;;10.60;1.00;;;;;;5110393;28;20285;-75
2021/12/23 07:23:30;;;;;;;4.47;2.43;;;10.50;1.00;;;;;;5110795;28;20209;-76
2021/12/23 07:25:57;;;;;;;4.80;2.87;;;10.60;1.00;;;;;;5112220;27;20196;-75
2021/12/23 07:28:25;;;;;;;4.10;2.90;;;10.60;1.00;;;;;;5111034;28;20205;-75
2021/12/23 07:30:54;;;;;;;3.63;2.80;;;10.60;1.00;;;;;;5110874;28;20768;-76
2021/12/23 07:33:21;;;;;;;4.03;2.63;;;10.60;1.00;;;;;;5099656;27;20197;-73
2021/12/23 07:35:49;;;;;;;7.70;3.03;;;10.60;1.00;;;;;;5102203;28;20209;-80
2021/12/23 07:38:16;;;;;;;3.70;2.83;;;10.60;1.00;;;;;;5108254;27;20288;-82
2021/12/23 07:40:44;;;;;;;6.20;3.83;;;10.60;1.00;;;;;;5118596;27;20683;-79
2021/12/23 07:43:31;;;;;;;5.70;4.27;;;10.60;1.00;;;;;;5111463;28;20201;-80
2021/12/23 07:45:59;;;;;;;4.23;2.87;;;10.60;1.00;;;;;;5127381;27;20208;-76
2021/12/23 07:48:27;;;;;;;4.17;2.70;;;10.60;1.00;;;;;;5100507;28;20201;-82
2021/12/23 07:50:54;;;;;;;4.67;3.23;;;10.60;1.00;;;;;;5105357;27;20241;-82
2021/12/23 07:53:22;;;;;;;3.53;3.03;;;10.60;1.00;;;;;;5110019;28;20236;-80
2021/12/23 07:55:49;;;;;;;6.57;2.97;;;10.60;1.00;;;;;;5111139;28;20196;-80
2021/12/23 07:58:17;;;;;;;3.13;2.83;;;10.60;1.00;;;;;;5106829;28;20624;-78
2021/12/23 08:00:44;;;;;;;3.00;2.70;;;10.60;1.00;;;;;;5111022;28;20212;-81
2021/12/23 08:03:13;;;;;;;3.57;3.03;;;10.60;1.00;;;;;;5110647;28;20808;-76
2021/12/23 08:05:41;;;;;;;2.63;2.23;;;10.60;1.00;;;;;;5107401;28;20235;-74
2021/12/23 08:08:08;;;;;;;4.03;3.20;;;10.60;1.00;;;;;;5111200;28;20287;-75
2021/12/23 08:10:36;;;;;;;3.37;2.83;;;10.60;1.00;;;;;;5081631;28;20240;-78
2021/12/23 08:13:03;;;;;;;3.60;2.63;;;10.60;1.00;;;;;;5106317;28;20205;-73
2021/12/23 08:15:30;;;;;;;2.67;2.20;;;10.60;1.00;;;;;;5110888;28;20269;-77
2021/12/23 08:17:57;;;;;;;4.00;2.70;;;10.70;1.00;;;;;;5106653;28;20209;-78
2021/12/23 08:20:25;;;;;;;4.70;2.37;;;10.70;1.00;;;;;;5105995;28;20217;-79
2021/12/23 08:22:52;;;;;;;2.63;1.80;;;10.60;1.00;;;;;;5102270;28;20684;-81
2021/12/23 08:25:19;;;;;;;2.30;2.10;;;10.70;1.00;;;;;;5098315;28;20216;-82
2021/12/23 08:27:49;;;;;;;4.93;2.60;;;10.70;1.00;;;;;;5103824;28;20208;-79
2021/12/23 08:30:18;;;;;;;5.13;2.77;;;10.70;1.00;;;;;;5105774;28;20613;-76
2021/12/23 08:32:46;;;;;;;3.13;2.50;;;10.70;1.00;;;;;;5110582;28;20216;-78
2021/12/23 08:35:14;;;;;;;2.87;2.57;;;10.70;1.00;;;;;;5111167;28;20205;-84
2021/12/23 08:37:46;;;;;;;3.23;2.30;;;10.70;1.00;;;;;;5110453;28;20201;-77
2021/12/23 08:40:15;;;;;;;2.50;2.13;;;10.80;1.00;;;;;;5101144;28;20318;-79
2021/12/23 08:42:42;;;;;;;2.50;2.17;;;10.80;1.00;;;;;;5111003;28;20251;-75
2021/12/23 08:45:10;;;;;;;2.43;2.23;;;10.80;1.00;;;;;;5110497;28;20205;-80
2021/12/23 08:47:38;;;;;;;3.10;2.80;;;10.80;1.00;;;;;;5109439;28;20690;-80
2021/12/23 08:50:07;;;;;;;3.50;2.50;;;10.90;1.00;;;;;;5099664;28;20278;-78
2021/12/23 08:52:34;;;;;;;2.60;2.40;;;10.90;1.00;;;;;;5092390;28;20254;-79
2021/12/23 08:55:04;;;;;;;2.60;2.23;;;10.80;1.00;;;;;;5101436;28;20201;-80
2021/12/23 08:57:32;;;;;;;2.80;2.60;;;10.90;1.00;;;;;;5107004;28;20197;-83
2021/12/23 08:59:59;;;;;;;3.47;2.83;;;10.90;1.00;;;;;;5105469;28;20591;-82
2021/12/23 09:02:26;;;;;;;2.73;2.50;;;10.90;1.00;;;;;;5110994;28;20749;-80
2021/12/23 09:04:54;;;;;;;3.80;2.53;;;11.00;1.00;;;;;;5110571;28;20258;-83
2021/12/23 09:07:21;;;;;;;3.93;3.00;;;11.00;1.00;;;;;;5100482;28;20266;-81
2021/12/23 09:09:50;;;;;;;4.83;2.47;;;10.90;1.00;;;;;;5076868;28;20229;-83
2021/12/23 09:12:20;;;;;;;3.20;2.13;;;11.00;1.00;;;;;;5073380;28;20206;-84
2021/12/23 09:14:48;;;;;;;2.63;2.40;;;11.00;1.00;;;;;;5094416;28;20581;-81
2021/12/23 09:17:15;;;;;;;5.50;3.40;;;10.90;1.00;;;;;;5101655;28;20805;-77
2021/12/23 09:19:44;;;;;;;3.47;3.03;;;11.00;1.00;;;;;;5111587;28;20205;-77
2021/12/23 09:22:12;;;;;;;3.00;2.60;;;11.00;1.00;;;;;;5106884;28;20198;-81
2021/12/23 09:24:44;;;;;;;5.30;3.27;;;11.00;1.00;;;;;;5114493;28;20574;-80
2021/12/23 09:27:22;;;;;;;2.90;2.60;;;11.00;1.00;;;;;;5114035;28;20668;-82
2021/12/23 09:35:26;;;;;;;3.37;3.07;;;11.10;1.00;;;;;;5101415;28;20204;-80
2021/12/23 09:37:54;;;;;;;7.13;3.43;;;11.10;1.00;;;;;;5122291;27;20292;-79
2021/12/23 09:40:23;;;;;;;5.23;3.23;;;11.10;1.00;;;;;;5097032;27;20201;-81
2021/12/23 09:42:51;;;;;;;4.30;3.50;;;11.10;1.00;;;;;;5124009;27;20197;-82
2021/12/23 09:45:20;;;;;;;6.73;3.27;;;11.20;1.00;;;;;;5113910;28;20596;-80
2021/12/23 09:47:49;;;;;;;5.13;3.10;;;11.10;1.00;;;;;;5112837;28;20243;-80
2021/12/23 09:50:18;;;;;;;4.67;3.37;;;11.20;1.00;;;;;;5111894;28;20236;-77
2021/12/23 09:52:47;;;;;;;3.93;3.53;;;11.30;1.00;;;;;;5105595;28;20200;-82
2021/12/23 09:55:17;;;;;;;4.90;2.77;;;11.30;1.00;;;;;;5110958;27;20209;-81
2021/12/23 09:57:46;;;;;;;4.40;4.00;;;11.30;1.00;;;;;;5114268;27;20201;-79
2021/12/23 10:00:15;;;;;;;7.27;3.87;;;11.30;1.00;;;;;;5111613;28;20209;-81
2021/12/23 10:02:44;;;;;;;8.20;3.27;;;11.30;1.00;;;;;;5099798;27;20235;-79
2021/12/23 10:05:14;;;;;;;5.80;3.10;;;11.40;1.00;;;;;;5112554;27;20227;-79
2021/12/23 10:07:44;;;;;;;4.20;3.37;;;11.40;1.00;;;;;;5113001;28;20231;-82
2021/12/23 10:10:16;;;;;;;3.60;3.00;;;11.40;1.00;;;;;;5114621;28;20263;-82
2021/12/23 10:38:05;;;;;;;5.00;4.27;;;11.60;1.00;;;;;;5114428;27;20192;-81
2021/12/23 10:40:33;;;;;;;5.03;4.53;;;11.60;1.00;;;;;;5115386;27;20608;-81
2021/12/23 10:43:01;;;;;;;5.97;4.77;;;11.60;1.00;;;;;;5125188;27;20274;-81
2021/12/23 10:45:39;;;;;;;5.27;4.83;;;11.60;1.00;;;;;;5119413;27;20242;-84
2021/12/23 10:48:12;;;;;;;7.63;5.00;;;11.60;1.00;;;;;;5117245;27;20571;-82
2021/12/23 10:50:45;;;;;;;4.67;4.23;;;11.40;1.00;;;;;;5116473;27;20228;-82
2021/12/23 10:53:25;;;;;;;5.47;4.90;;;11.50;1.00;;;;;;5112496;27;20201;-80
2021/12/23 10:59:03;;;;;;;6.40;4.37;;;11.50;1.00;;;;;;5115801;27;20218;-82
2021/12/23 11:01:30;;;;;;;6.83;5.10;;;11.50;1.00;;;;;;5114734;27;20203;-83
2021/12/23 11:04:01;;;;;;;4.43;4.03;;;11.50;1.00;;;;;;5117610;27;20197;-82
2021/12/23 11:06:36;;;;;;;6.50;5.37;;;11.60;1.00;;;;;;5106738;27;20204;-82
2021/12/23 11:09:19;;;;;;;6.73;4.70;;;11.50;1.00;;;;;;5110792;27;20208;-80
2021/12/23 11:37:09;;;;;;;6.20;4.73;;;11.90;1.00;;;;;;5100354;28;20212;-84
2021/12/23 11:39:52;;;;;;;5.83;4.17;;;11.80;1.00;;;;;;5105044;28;20232;-84
2021/12/23 11:42:29;;;;;;;5.83;4.93;;;11.80;1.00;;;;;;5105623;28;20297;-79
2021/12/23 11:44:56;;;;;;;7.47;4.70;;;11.70;1.00;;;;;;5105988;28;20209;-78
2021/12/23 11:47:25;;;;;;;6.60;5.17;;;11.80;1.00;;;;;;5109220;27;20205;-83
2021/12/23 11:49:52;;;;;;;8.60;4.90;;;11.70;1.00;;;;;;5120902;27;20204;-83
2021/12/23 11:52:19;;;;;;;9.27;4.80;;;11.80;1.00;;;;;;5114689;27;20248;-79
2021/12/23 11:54:48;;;;;;;9.20;5.43;;;11.90;1.00;;;;;;5112478;27;20204;-79
2021/12/23 11:57:20;;;;;;;6.50;5.13;;;11.90;1.00;;;;;;5115169;27;20265;-79
2021/12/23 12:00:02;;;;;;;5.73;4.83;;;11.90;1.00;;;;;;5116324;27;20571;-78
2021/12/23 12:02:32;;;;;;;7.27;5.00;;;11.80;1.00;;;;;;5112434;27;20204;-77
2021/12/23 12:05:01;;;;;;;5.80;4.65;;;12.00;1.00;;;;;;5110256;28;20622;-80
2021/12/23 12:07:29;;;;;;;5.22;4.63;;;11.90;1.00;;;;;;5121216;28;20716;-81
2021/12/23 12:10:00;;;;;;;7.03;4.17;;;12.00;1.00;;;;;;5120051;28;20683;-82
2021/12/23 12:12:27;;;;;;;7.10;5.13;;;12.10;1.00;;;;;;5111596;28;20253;-77
2021/12/23 12:14:55;;;;;;;4.87;4.37;;;12.10;1.00;;;;;;5110747;28;20205;-78
2021/12/23 12:17:40;;;;;;;5.28;4.72;;;12.00;1.00;;;;;;5111433;28;20245;-83
2021/12/23 12:20:21;;;;;;;6.10;4.27;;;12.10;1.00;;;;;;5130655;28;20196;-79
2021/12/23 12:22:59;;;;;;;5.17;3.87;;;12.30;1.00;;;;;;5102561;28;20197;-81
2021/12/23 12:25:52;;;;;;;4.10;3.70;;;12.20;1.00;;;;;;5110063;28;20226;-76
2021/12/23 12:28:34;;;;;;;7.10;4.03;;;12.10;1.00;;;;;;5108239;28;20204;-81
2021/12/23 12:31:06;;;;;;;6.78;4.90;;;12.10;1.00;;;;;;5104878;28;20220;-83
2021/12/23 12:33:52;;;;;;;4.83;4.30;;;12.10;1.00;;;;;;5110190;28;20188;-83
2021/12/23 12:36:19;;;;;;;6.10;5.07;;;12.00;1.00;;;;;;5107951;28;20239;-80
2021/12/23 12:38:50;;;;;;;6.23;4.70;;;12.00;1.00;;;;;;5103692;28;20204;-79
2021/12/23 12:41:27;;;;;;;6.77;4.17;;;12.00;1.00;;;;;;5110565;28;20205;-76
2021/12/23 12:44:04;;;;;;;4.75;4.00;;;12.00;1.00;;;;;;5108283;28;20205;-79
2021/12/23 12:47:01;;;;;;;6.00;5.40;;;12.10;1.00;;;;;;5108933;28;20205;-76
2021/12/23 12:49:31;;;;;;;6.63;5.57;;;12.10;1.00;;;;;;5106313;28;20591;-77
2021/12/23 12:52:14;;;;;;;4.87;4.33;;;12.20;1.00;;;;;;5100875;28;20232;-78
2021/12/23 12:54:43;;;;;;;7.93;4.20;;;12.20;1.00;;;;;;5114257;27;20261;-76
2021/12/23 12:57:12;;;;;;;7.55;4.70;;;12.20;1.00;;;;;;5113976;28;20261;-76
2021/12/23 12:59:44;;;;;;;4.57;3.78;;;12.00;1.00;;;;;;5114652;28;20296;-76
2021/12/23 13:02:23;;;;;;;6.07;4.78;;;12.00;1.00;;;;;;5113897;28;20205;-75
2021/12/23 13:04:56;;;;;;;6.57;5.40;;;12.00;1.00;;;;;;5109699;28;20265;-77
2021/12/23 13:07:29;;;;;;;4.55;3.92;;;12.30;1.00;;;;;;5113594;28;20239;-75
2021/12/23 13:10:01;;;;;;;5.95;5.20;;;12.20;1.00;;;;;;5109364;28;20205;-73
2021/12/23 13:12:45;;;;;;;5.22;4.55;;;12.20;1.00;;;;;;5110678;28;20324;-78
2021/12/23 13:15:19;;;;;;;6.43;3.83;;;12.10;1.00;;;;;;5113576;28;20207;-77
2021/12/23 13:18:01;;;;;;;7.23;4.23;;;12.00;1.00;;;;;;5107166;28;20198;-76
2021/12/23 13:20:41;;;;;;;5.35;4.53;;;12.00;1.00;;;;;;5104063;27;20201;-77
2021/12/23 13:23:15;;;;;;;5.60;4.47;;;12.10;1.00;;;;;;5099879;28;20216;-79
2021/12/23 13:25:48;;;;;;;6.73;5.00;;;12.20;1.00;;;;;;5107515;28;20269;-75
2021/12/23 13:28:29;;;;;;;5.63;4.80;;;12.30;1.00;;;;;;5128138;27;20252;-78
2021/12/23 13:30:56;;;;;;;5.90;5.20;;;12.20;1.00;;;;;;5129309;27;20640;-80
2021/12/23 13:33:24;;;;;;;7.28;5.60;;;12.20;1.00;;;;;;5114080;28;20201;-78
2021/12/23 13:35:51;;;;;;;4.97;4.47;;;12.10;1.00;;;;;;5113423;28;20269;-75
2021/12/23 13:38:36;;;;;;;6.90;5.00;;;12.10;1.00;;;;;;5113800;28;20986;-76
2021/12/23 13:41:27;;;;;;;6.57;4.97;;;12.10;1.00;;;;;;5096680;28;20246;-78
2021/12/23 13:43:59;;;;;;;6.03;5.43;;;12.10;1.00;;;;;;5107581;28;20652;-80
2021/12/23 13:46:28;;;;;;;8.67;5.53;;;12.00;1.00;;;;;;5108258;28;20201;-76
2021/12/23 13:49:01;;;;;;;7.70;6.05;;;12.10;1.00;;;;;;5111732;28;20686;-79
2021/12/23 13:51:31;;;;;;;8.00;5.67;;;12.00;1.00;;;;;;5116155;27;20240;-78
2021/12/23 13:54:04;;;;;;;5.73;4.90;;;12.00;1.00;;;;;;5107168;28;20202;-78
2021/12/23 13:56:33;;;;;;;8.05;5.25;;;12.00;1.00;;;;;;5113238;28;20270;-79
2021/12/23 13:59:19;;;;;;;8.20;7.00;;;12.00;1.00;;;;;;5112263;28;20652;-78
2021/12/23 14:02:05;;;;;;;8.20;6.35;;;11.90;1.00;;;;;;5112579;27;20201;-79
2021/12/23 14:04:44;;;;;;;7.47;5.35;;;11.80;1.00;;;;;;5112913;28;20200;-78
2021/12/23 14:07:19;;;;;;;7.77;5.63;;;11.90;1.00;;;;;;5125263;27;20211;-79
2021/12/23 14:09:49;;;;;;;11.02;7.13;;;11.90;1.00;;;;;;5131186;27;20659;-78
2021/12/23 14:12:19;;;;;;;6.33;5.27;;;11.70;1.00;;;;;;5114202;27;20292;-78
2021/12/23 14:15:00;;;;;;;8.53;5.90;;;11.70;1.00;;;;;;5133712;27;20207;-77